Meteo Giornale » Osservazioni meteo Italia » Catania-Fontanarossa

ore: 00:20 - Osservazioni Meteo Catania-Fontanarossa
Lat. 37° 28' N Lon. 15° 3' E Alt. 11 metri s.l.m.

sereno Europe/Rome

7 °C

Sereno

Temp. 24 Ore

1 °C

19 °C

Nord

3.7 Km/h

Dew point 5 °C

Umidità 87 %

Visibilità  10 Km

Il sole sorge alle ore 06:36

Il sole tramonta alle ore 17:49

Data e Ora Cielo e Fenomeni T °C DP °C Um. % Pres. hPa Vis. km Vento km/h
Oggi h: 00:20 sereno Sereno 7 5 87 1026 10 N 3.7
Ieri h: 23:50 sereno Sereno 7 6 93 1026 10 O/SO 7.4
Ieri h: 23:20 sereno Sereno 7 5 87 1026 10 O/SO 7.4
Ieri h: 22:50 sereno Sereno 7 5 87 1027 10 O 9.3
Ieri h: 22:20 sereno Sereno 8 6 87 1027 10 N 5.5
Ieri h: 21:50 sereno Sereno 8 6 87 1027 10 O 9.3
Ieri h: 21:20 sereno Sereno 12 7 71 1028 10 N 3.7
Ieri h: 20:50 sereno Sereno 11 7 76 1027 10 N 1.8
Ieri h: 20:20 sereno Sereno 11 6 71 1027 10 N 3.7
Ieri h: 19:50 sereno Sereno 13 8 71 1027 10 N 3.7
Ieri h: 19:20 sereno Sereno 13 8 71 1027 10 N 3.7
Ieri h: 18:50 sereno Sereno 13 8 71 1027 10 N 5.5
Ieri h: 18:20 sereno Sereno 14 9 71 1027 10 S/SE 7.4
Ieri h: 17:50 sereno Sereno 15 10 72 1027 10 SE 7.4
Ieri h: 17:20 sereno Sereno 16 10 67 1027 10 S/SE 7.4
Ieri h: 16:50 sereno Sereno 16 10 67 1027 10 SE 9.3
Ieri h: 16:20 sereno Sereno 16 10 67 1027 10 E/SE 11.1
Ieri h: 15:50 sereno Sereno 17 9 59 1027 10 E 14.8
Ieri h: 15:20 sereno Sereno 17 8 55 1028 10 E 22.2
Ieri h: 14:50 sereno Sereno 17 5 45 1028 10 E 20.3
Ieri h: 14:20 sereno Sereno 18 0 29 1028 10 E 18.5
Ieri h: 13:50 sereno Sereno 18 1 31 1028 10 E 18.5
Ieri h: 13:20 sereno Sereno 18 1 31 1029 10 E 18.5
Ieri h: 12:50 sereno Sereno 19 1 29 1029 10 N 5.5
Ieri h: 12:20 sereno Sereno 19 3 34 1030 10 N 5.5
Ieri h: 11:20 sereno Sereno 17 3 39 1030 10 SO 13
Ieri h: 10:50 sereno Sereno 16 3 41 1031 10 O/SO 16.7
Ieri h: 10:20 sereno Sereno 15 3 44 1031 10 O/SO 16.7
Ieri h: 09:50 sereno Sereno 14 4 50 1031 10 O/SO 16.7
Ieri h: 09:20 sereno Sereno 11 3 57 1031 10 O/SO 13
Ieri h: 08:50 sereno Sereno 9 3 66 1031 10 O/SO 14.8
Ieri h: 08:20 sereno Sereno 7 2 70 1031 10 O/SO 14.8
Ieri h: 07:50 sereno Sereno 6 0 65 1030 10 SO 13
Ieri h: 07:20 sereno Sereno 4 -0 75 1030 10 O/SO 14.8
Ieri h: 06:50 sereno Sereno 2 -1 80 1030 10 O 18.5
Ieri h: 06:20 sereno Sereno 2 -1 80 1030 10 SO 16.7
Ieri h: 05:50 sereno Sereno 3 -0 80 1030 10 O/SO 13
Ieri h: 04:50 sereno Sereno 1 -1 86 1030 10 O/SO 9.3
Ieri h: 04:20 sereno Sereno 1 -1 86 1030 10 O 16.7
Ieri h: 03:50 sereno Sereno 2 -0 86 1031 10 SO 11.1
Ieri h: 03:20 sereno Sereno 2 0 86 1031 10 SO 13
Ieri h: 02:50 sereno Sereno 2 0 86 1031 10 O/SO 14.8
Ieri h: 02:20 sereno Sereno 3 1 86 1031 10 N 5.5
Ieri h: 01:50 sereno Sereno 3 1 86 1031 10 SO 11.1
Ieri h: 01:20 sereno Sereno 3 1 86 1032 10 SO 7.4
Ieri h: 00:50 sereno Sereno 3 1 86 1032 10 O 9.3